KEMK

East Breaks

East Breaks, Texas, USA
METAR KEMK 170315Z AUTO 10011KT 10SM FEW036 BKN047 OVC055 27/24 A3004 RMK A01
Observed Flight Rules
Oct-17 @ 03:15 UTC (15 minutes ago) Visual Flight Rules
Wind Visibility Clouds
100° at 11 knots 10 miles
  • Few at 3,600' AGL
  • Broken at 4,700' AGL
  • Overcast at 5,500' AGL
Temperatures Readings
Current 27°C / 81°F
Dewpoint 24°C / 75°F
Humidity 84%
Altimeter 30.04" Hg
Pressure 1017 hPa
Elevation 26
METAR KEMK 170315Z AUTO 10011KT 10SM FEW036 BKN047 OVC055 27/24 A3004 RMK A01
Observed Flight Rules
Oct-17 @ 03:15 UTC
(15 minutes ago)
VFR
Wind Visibility
100° at 11 knots 10 miles
Clouds
  • Few at 3,600' AGL
  • Broken at 4,700' AGL
  • Overcast at 5,500' AGL
Temperature Dewpoint
27°C / 81°F 24°C / 75°F
Humidity Altimeter Pressure
84% 30.04" Hg 1017 hPa